createdAt,value
2022-10-28T00:01:19.599Z,60.74
2022-10-28T00:03:48.125Z,60.93
2022-10-28T00:06:16.197Z,60.56
2022-10-28T00:08:43.127Z,60.65
2022-10-28T00:11:14.483Z,60.63
2022-10-28T00:13:41.786Z,60.47
2022-10-28T00:16:14.873Z,60.90
2022-10-28T00:18:41.938Z,60.83
2022-10-28T00:21:18.570Z,61.10
2022-10-28T00:23:45.511Z,61.29
2022-10-28T00:26:13.489Z,60.88
2022-10-28T00:28:40.901Z,61.15
2022-10-28T00:31:08.083Z,60.71
2022-10-28T00:33:34.859Z,60.81
2022-10-28T00:36:19.484Z,61.28
2022-10-28T00:38:48.110Z,60.70
2022-10-28T00:41:19.225Z,61.08
2022-10-28T00:43:47.505Z,61.42
2022-10-28T00:46:34.458Z,61.38
2022-10-28T00:49:05.890Z,61.45
2022-10-28T00:51:33.416Z,60.96
2022-10-28T00:54:00.144Z,61.29
2022-10-28T00:56:27.979Z,61.34
2022-10-28T00:58:55.439Z,61.34
2022-10-28T01:01:23.350Z,61.00
2022-10-28T01:03:50.748Z,61.33
2022-10-28T01:06:17.390Z,60.96
2022-10-28T01:08:44.043Z,61.48
2022-10-28T01:11:16.829Z,61.02
2022-10-28T01:13:48.061Z,61.03
2022-10-28T01:16:26.536Z,61.76
2022-10-28T01:19:08.509Z,61.50
2022-10-28T01:21:54.195Z,61.44
2022-10-28T01:24:35.857Z,61.12
2022-10-28T01:27:02.777Z,62.14
2022-10-28T01:29:35.304Z,61.38
2022-10-28T01:32:02.212Z,62.11
2022-10-28T01:34:47.725Z,61.60
2022-10-28T01:37:15.903Z,61.67
2022-10-28T01:39:42.548Z,61.38
2022-10-28T01:42:35.464Z,60.81
2022-10-28T01:45:22.719Z,61.39
2022-10-28T01:47:57.395Z,62.00
2022-10-28T01:50:25.495Z,61.98
2022-10-28T01:52:53.453Z,61.87
2022-10-28T01:55:21.760Z,61.90
2022-10-28T01:57:49.009Z,61.22
2022-10-28T02:00:15.846Z,61.92
2022-10-28T02:02:42.856Z,61.97
2022-10-28T02:05:29.527Z,61.46
2022-10-28T02:07:57.222Z,61.33
2022-10-28T02:10:24.324Z,61.37
2022-10-28T02:12:51.549Z,61.17
2022-10-28T02:15:18.748Z,61.19
2022-10-28T02:18:04.208Z,61.28
2022-10-28T02:20:43.501Z,61.77
2022-10-28T02:23:24.987Z,61.70
2022-10-28T02:25:57.045Z,61.17
2022-10-28T02:28:53.148Z,61.50
2022-10-28T02:31:24.576Z,61.51
2022-10-28T02:33:52.459Z,62.11
2022-10-28T02:36:19.190Z,61.95
2022-10-28T02:38:49.624Z,61.58
2022-10-28T02:41:17.565Z,61.63
2022-10-28T02:43:44.242Z,61.57
2022-10-28T02:46:11.190Z,61.42
2022-10-28T02:48:41.947Z,61.00
2022-10-28T02:51:12.430Z,61.12
2022-10-28T02:54:05.859Z,61.45
2022-10-28T02:56:33.628Z,60.82
2022-10-28T02:59:00.507Z,61.44
2022-10-28T03:01:27.295Z,61.77
2022-10-28T03:03:54.061Z,61.86
2022-10-28T03:06:20.971Z,61.83
2022-10-28T03:08:47.643Z,62.05
2022-10-28T03:11:14.389Z,62.52
2022-10-28T03:13:41.301Z,62.04
2022-10-28T03:16:08.042Z,61.90
2022-10-28T03:18:34.688Z,62.07
2022-10-28T03:21:01.658Z,61.63
2022-10-28T03:23:28.327Z,61.56
2022-10-28T03:25:55.029Z,62.10
2022-10-28T03:28:22.026Z,62.47
2022-10-28T03:30:48.679Z,62.78
2022-10-28T03:33:15.867Z,62.14
2022-10-28T03:35:42.832Z,62.52
2022-10-28T03:38:09.647Z,61.91
2022-10-28T03:40:36.382Z,62.19
2022-10-28T03:43:03.323Z,61.64
2022-10-28T03:48:01.560Z,61.93
2022-10-28T03:50:28.465Z,62.10
2022-10-28T03:52:55.720Z,62.80
2022-10-28T03:55:26.862Z,62.75
2022-10-28T03:57:56.809Z,63.14
2022-10-28T04:00:23.971Z,62.70
2022-10-28T04:02:51.823Z,62.41
2022-10-28T04:05:20.339Z,62.10
2022-10-28T04:07:47.267Z,62.11
2022-10-28T04:10:14.423Z,62.42
2022-10-28T04:12:41.070Z,62.25
2022-10-28T04:15:07.862Z,61.53
2022-10-28T04:17:34.847Z,62.14
2022-10-28T04:20:01.530Z,62.28
2022-10-28T04:22:28.250Z,62.15
2022-10-28T04:24:55.379Z,62.44
2022-10-28T04:27:22.049Z,62.83
2022-10-28T04:29:48.700Z,62.64
2022-10-28T04:32:15.617Z,62.41
2022-10-28T04:34:42.286Z,62.32
2022-10-28T04:37:08.994Z,62.69
2022-10-28T04:39:35.900Z,62.61
2022-10-28T04:42:02.557Z,62.75
2022-10-28T04:44:29.231Z,63.03
2022-10-28T04:46:57.014Z,62.48
2022-10-28T04:49:23.720Z,62.18
2022-10-28T04:51:50.453Z,63.02
2022-10-28T04:54:17.412Z,62.76
2022-10-28T04:56:44.192Z,62.94
2022-10-28T04:59:10.876Z,62.96
2022-10-28T05:01:38.077Z,62.97
2022-10-28T05:04:04.966Z,64.01
2022-10-28T05:06:31.620Z,62.98
2022-10-28T05:08:58.598Z,63.63
2022-10-28T05:11:25.313Z,63.43
2022-10-28T05:13:53.218Z,63.24
2022-10-28T05:16:20.448Z,62.78
2022-10-28T05:18:47.192Z,63.28
2022-10-28T05:21:13.956Z,64.32
2022-10-28T05:23:40.872Z,63.65
2022-10-28T05:26:07.524Z,63.55
2022-10-28T05:28:34.232Z,64.04
2022-10-28T05:31:01.195Z,63.37
2022-10-28T05:33:27.859Z,63.70
2022-10-28T05:35:54.574Z,63.98
2022-10-28T05:38:21.523Z,63.92
2022-10-28T05:40:48.245Z,64.19
2022-10-28T05:43:15.004Z,63.97
2022-10-28T05:45:41.951Z,63.51
2022-10-28T05:48:08.665Z,63.54
2022-10-28T05:50:35.473Z,64.27
2022-10-28T05:53:02.431Z,64.27
2022-10-28T05:55:29.622Z,64.83
2022-10-28T05:57:57.165Z,64.46
2022-10-28T06:00:24.922Z,65.52
2022-10-28T06:02:52.174Z,64.71
2022-10-28T06:05:19.608Z,65.48
2022-10-28T06:07:46.357Z,64.63
2022-10-28T06:10:14.348Z,64.92
2022-10-28T06:12:39.526Z,65.76
2022-10-28T06:15:06.690Z,64.75
2022-10-28T06:17:33.688Z,64.85
2022-10-28T06:20:00.542Z,64.71
2022-10-28T06:22:27.319Z,65.38
2022-10-28T06:24:54.396Z,65.27
2022-10-28T06:27:22.107Z,64.02
2022-10-28T06:29:48.780Z,64.55
2022-10-28T06:32:15.768Z,63.91
2022-10-28T06:34:42.423Z,64.42
2022-10-28T06:37:09.503Z,64.32
2022-10-28T06:46:01.061Z,64.34
2022-10-28T06:48:50.842Z,64.28
2022-10-28T07:02:56.349Z,63.98
2022-10-28T07:06:17.046Z,64.21
2022-10-28T07:09:11.769Z,64.07
2022-10-28T07:15:49.938Z,64.44
2022-10-28T07:18:50.841Z,64.80
2022-10-28T07:32:40.535Z,64.04
2022-10-28T07:52:56.771Z,63.82
2022-10-28T08:02:17.293Z,64.40
2022-10-28T08:12:28.665Z,65.22
2022-10-28T08:14:57.914Z,64.90
2022-10-28T08:17:24.658Z,64.06
2022-10-28T08:19:55.756Z,65.36
2022-10-28T08:22:25.346Z,64.80
2022-10-28T08:24:53.237Z,64.69
2022-10-28T08:27:19.992Z,64.43
2022-10-28T08:29:50.207Z,64.33
2022-10-28T08:32:17.104Z,64.27
2022-10-28T08:34:43.929Z,64.84
2022-10-28T08:37:11.281Z,63.45
2022-10-28T08:39:38.098Z,64.50
2022-10-28T08:42:23.907Z,64.25
2022-10-28T08:44:53.849Z,64.11
2022-10-28T08:47:23.528Z,64.45
2022-10-28T08:49:51.169Z,63.45
2022-10-28T08:52:33.142Z,63.53
2022-10-28T08:55:02.943Z,63.68
2022-10-28T08:57:32.960Z,63.39
2022-10-28T09:00:00.043Z,62.94
2022-10-28T09:02:28.556Z,62.87
2022-10-28T09:05:15.624Z,62.98
2022-10-28T09:07:42.270Z,63.36
2022-10-28T09:10:10.562Z,63.26
2022-10-28T09:12:40.727Z,63.35
2022-10-28T09:15:12.258Z,63.09
2022-10-28T09:17:53.463Z,63.23
2022-10-28T09:20:38.164Z,63.30
2022-10-28T09:23:10.971Z,62.76
2022-10-28T09:25:56.598Z,62.70
2022-10-28T09:28:30.305Z,63.75
2022-10-28T09:31:03.327Z,63.92
2022-10-28T09:33:55.835Z,63.16
2022-10-28T09:36:27.910Z,62.90
2022-10-28T09:38:55.277Z,63.99
2022-10-28T09:41:23.394Z,62.44
2022-10-28T09:44:09.168Z,62.54
2022-10-28T09:46:37.212Z,62.38
2022-10-28T09:49:05.234Z,62.54
2022-10-28T09:51:43.327Z,63.11
2022-10-28T09:54:11.208Z,63.63
2022-10-28T09:56:38.059Z,63.51
2022-10-28T09:59:04.746Z,63.90
2022-10-28T10:01:37.130Z,63.41
2022-10-28T10:04:12.719Z,63.28
2022-10-28T10:06:39.462Z,63.48
2022-10-28T10:09:06.473Z,63.25
2022-10-28T10:11:34.999Z,62.93
2022-10-28T10:14:08.716Z,63.32
2022-10-28T10:16:55.658Z,63.07
2022-10-28T10:19:22.356Z,62.27
2022-10-28T10:21:50.257Z,63.05
2022-10-28T10:24:29.553Z,62.83
2022-10-28T10:27:00.870Z,62.38
2022-10-28T10:29:29.254Z,61.97
2022-10-28T10:32:07.742Z,62.37
2022-10-28T10:34:34.571Z,61.95
2022-10-28T10:37:01.815Z,62.72
2022-10-28T10:39:31.618Z,63.09
2022-10-28T10:42:02.101Z,62.60
2022-10-28T10:44:33.436Z,62.07
2022-10-28T10:47:04.988Z,62.23
2022-10-28T10:49:34.067Z,63.72
2022-10-28T10:52:17.840Z,62.41
2022-10-28T10:55:05.238Z,62.65
2022-10-28T10:57:32.238Z,62.85
2022-10-28T10:59:59.570Z,63.59
2022-10-28T11:02:38.022Z,62.40
2022-10-28T11:05:12.539Z,62.40
2022-10-28T11:07:40.519Z,62.67
2022-10-28T11:10:07.350Z,63.24
2022-10-28T11:12:44.892Z,62.53
2022-10-28T11:15:16.492Z,62.11
2022-10-28T11:17:53.927Z,62.53
2022-10-28T11:20:47.987Z,62.63
2022-10-28T11:23:27.660Z,63.29
2022-10-28T11:26:07.205Z,62.83
2022-10-28T11:28:59.416Z,61.88
2022-10-28T11:34:38.058Z,62.96
2022-10-28T11:37:20.011Z,62.17
2022-10-28T11:39:54.207Z,63.00
2022-10-28T11:42:33.239Z,63.78
2022-10-28T11:45:05.044Z,62.35
2022-10-28T11:47:48.051Z,63.14
2022-10-28T11:50:36.466Z,63.02
2022-10-28T11:53:22.462Z,62.44
2022-10-28T11:55:55.744Z,62.91
2022-10-28T11:58:32.339Z,63.49
2022-10-28T12:00:59.484Z,63.21
2022-10-28T12:03:32.517Z,63.31
2022-10-28T12:06:31.324Z,63.69
2022-10-28T12:09:19.626Z,62.22
2022-10-28T12:12:41.311Z,62.58
2022-10-28T12:15:39.130Z,62.60
2022-10-28T12:18:43.214Z,62.52
2022-10-28T12:21:31.840Z,62.30
2022-10-28T12:23:59.077Z,62.63
2022-10-28T12:26:45.486Z,62.54
2022-10-28T12:29:17.848Z,62.60
2022-10-28T12:32:10.917Z,63.12
2022-10-28T12:34:39.606Z,63.74
2022-10-28T12:37:08.288Z,63.16
2022-10-28T12:39:39.588Z,62.80
2022-10-28T12:42:10.371Z,62.15
2022-10-28T12:44:37.144Z,61.34
2022-10-28T12:47:12.579Z,62.38
2022-10-28T12:55:56.531Z,62.58
2022-10-28T12:58:41.356Z,62.92
2022-10-28T13:01:17.290Z,62.49
2022-10-28T13:03:44.443Z,62.51
2022-10-28T13:09:14.644Z,61.96
2022-10-28T13:11:54.975Z,62.24
2022-10-28T13:14:42.303Z,62.13
2022-10-28T13:17:14.843Z,62.19
2022-10-28T13:19:41.763Z,63.64
2022-10-28T13:22:18.572Z,63.82
2022-10-28T13:24:52.243Z,62.73
2022-10-28T13:27:19.409Z,63.07
2022-10-28T13:29:49.716Z,62.39
2022-10-28T13:32:32.645Z,62.66
2022-10-28T13:35:10.708Z,63.14
2022-10-28T13:37:40.407Z,63.64
2022-10-28T13:40:14.197Z,62.81
2022-10-28T13:42:45.590Z,63.44
2022-10-28T13:45:31.466Z,63.25
2022-10-28T13:48:16.785Z,63.96
2022-10-28T13:50:43.762Z,64.28
2022-10-28T13:53:28.974Z,64.10
2022-10-28T13:55:56.972Z,63.52
2022-10-28T13:58:24.712Z,65.28
2022-10-28T14:00:53.346Z,65.25
2022-10-28T14:03:24.703Z,65.03
2022-10-28T14:05:53.006Z,64.25
2022-10-28T14:08:38.878Z,64.31
2022-10-28T14:11:05.863Z,64.26
2022-10-28T14:13:34.179Z,63.96
2022-10-28T14:16:14.394Z,64.21
2022-10-28T14:18:54.959Z,64.59
2022-10-28T14:21:21.685Z,64.21
2022-10-28T14:23:48.608Z,63.59
2022-10-28T14:26:18.269Z,63.78
2022-10-28T14:28:44.946Z,63.42
2022-10-28T14:31:12.003Z,64.63
2022-10-28T14:33:44.562Z,64.12
2022-10-28T14:36:22.419Z,64.40
2022-10-28T14:39:13.585Z,64.00
2022-10-28T14:41:46.636Z,64.21
2022-10-28T14:44:16.465Z,64.31
2022-10-28T14:46:55.608Z,64.11
2022-10-28T14:49:26.400Z,63.46
2022-10-28T14:51:53.334Z,63.41
2022-10-28T14:54:43.880Z,63.56
2022-10-28T14:57:10.836Z,63.60
2022-10-28T14:59:38.397Z,63.37
2022-10-28T15:02:15.470Z,63.75
2022-10-28T15:04:43.369Z,63.90
2022-10-28T15:07:14.307Z,63.99
2022-10-28T15:09:56.615Z,64.34
2022-10-28T15:16:04.862Z,64.35
2022-10-28T15:18:49.032Z,64.54
2022-10-28T15:21:19.826Z,63.73
2022-10-28T15:24:09.231Z,64.42
2022-10-28T15:26:35.872Z,64.45
2022-10-28T15:29:02.818Z,64.20
2022-10-28T15:31:30.684Z,63.97
2022-10-28T15:33:57.356Z,64.29
2022-10-28T15:36:24.957Z,64.19
2022-10-28T15:39:12.472Z,64.55
2022-10-28T15:51:12.593Z,64.90
2022-10-28T15:53:43.105Z,65.06
2022-10-28T15:56:26.208Z,65.53
2022-10-28T15:58:56.651Z,64.79
2022-10-28T16:01:26.707Z,65.19
2022-10-28T16:03:56.098Z,64.77
2022-10-28T16:06:24.412Z,65.04
2022-10-28T16:09:01.357Z,65.34
2022-10-28T16:11:28.364Z,65.58
2022-10-28T16:13:55.050Z,65.30
2022-10-28T16:16:26.257Z,64.59
2022-10-28T16:18:58.103Z,65.99
2022-10-28T16:21:25.682Z,65.62
2022-10-28T16:26:48.246Z,65.29
2022-10-28T16:29:15.346Z,65.33
2022-10-28T16:31:42.780Z,65.55
2022-10-28T16:34:13.074Z,65.65
2022-10-28T16:36:51.169Z,65.91
2022-10-28T16:39:18.628Z,66.83
2022-10-28T16:41:45.827Z,66.28
2022-10-28T16:44:19.141Z,65.66
2022-10-28T16:46:46.995Z,65.97
2022-10-28T16:49:15.012Z,66.20
2022-10-28T16:51:43.570Z,66.60
2022-10-28T16:54:14.487Z,65.57
2022-10-28T16:56:41.724Z,65.12
2022-10-28T16:59:09.541Z,65.24
2022-10-28T17:01:37.631Z,65.43
2022-10-28T17:04:14.075Z,65.66
2022-10-28T17:06:42.137Z,65.83
2022-10-28T17:09:09.742Z,65.18
2022-10-28T17:11:36.802Z,65.25
2022-10-28T17:14:04.198Z,64.80
2022-10-28T17:16:31.150Z,64.70
2022-10-28T17:21:59.999Z,65.03
2022-10-28T17:28:04.263Z,64.82
2022-10-28T17:30:31.817Z,64.88
2022-10-28T17:32:58.995Z,64.95
2022-10-28T17:35:29.366Z,64.83
2022-10-28T17:37:57.696Z,64.63
2022-10-28T17:40:24.947Z,65.06
2022-10-28T17:42:52.222Z,65.31
2022-10-28T17:45:21.978Z,65.59
2022-10-28T17:47:49.335Z,65.66
2022-10-28T17:50:16.557Z,65.58
2022-10-28T17:52:44.074Z,65.58
2022-10-28T17:55:11.292Z,65.22
2022-10-28T17:57:38.162Z,64.66
2022-10-28T18:00:05.345Z,64.86
2022-10-28T18:02:40.614Z,64.35
2022-10-28T18:05:10.769Z,64.61
2022-10-28T18:07:37.909Z,64.86
2022-10-28T18:10:05.896Z,64.79
2022-10-28T18:12:36.413Z,64.76
2022-10-28T18:15:03.461Z,65.89
2022-10-28T18:17:30.192Z,65.50
2022-10-28T18:19:58.004Z,64.73
2022-10-28T18:24:54.726Z,65.01
2022-10-28T18:27:22.834Z,65.75
2022-10-28T18:29:49.941Z,65.93
2022-10-28T18:32:17.089Z,65.11
2022-10-28T18:34:44.352Z,65.29
2022-10-28T18:37:12.107Z,65.67
2022-10-28T18:39:39.220Z,65.50
2022-10-28T18:42:06.499Z,65.41
2022-10-28T18:44:33.326Z,65.39
2022-10-28T18:47:00.286Z,66.02
2022-10-28T18:49:27.645Z,65.18
2022-10-28T18:51:55.193Z,65.53
2022-10-28T18:54:22.530Z,64.86
2022-10-28T18:56:53.558Z,64.72
2022-10-28T18:59:22.082Z,65.27
2022-10-28T19:01:50.192Z,64.18
2022-10-28T19:04:17.397Z,63.98
2022-10-28T19:06:45.597Z,64.45
2022-10-28T19:09:13.119Z,65.40
2022-10-28T19:11:40.372Z,66.00
2022-10-28T19:14:08.371Z,66.00
2022-10-28T19:16:36.177Z,65.32
2022-10-28T19:19:04.480Z,65.12
2022-10-28T19:21:31.466Z,66.05
2022-10-28T19:23:59.557Z,65.46
2022-10-28T19:26:26.676Z,65.75
2022-10-28T19:28:54.745Z,65.29
2022-10-28T19:31:23.482Z,65.87
2022-10-28T19:33:51.992Z,65.64
2022-10-28T19:36:19.266Z,64.93
2022-10-28T19:38:47.373Z,65.47
2022-10-28T19:41:15.696Z,66.07
2022-10-28T19:43:42.709Z,65.53
2022-10-28T19:46:10.919Z,65.19
2022-10-28T19:48:38.527Z,65.23
2022-10-28T19:51:05.399Z,66.03
2022-10-28T19:53:36.563Z,67.21
2022-10-28T19:56:03.703Z,68.10
2022-10-28T19:58:30.719Z,66.62
2022-10-28T20:00:58.390Z,65.90
2022-10-28T20:03:26.182Z,66.57
2022-10-28T20:06:00.134Z,66.58
2022-10-28T20:08:27.177Z,66.87
2022-10-28T20:11:00.340Z,66.11
2022-10-28T20:13:27.367Z,66.02
2022-10-28T20:15:54.478Z,65.48
2022-10-28T20:18:21.590Z,64.99
2022-10-28T20:20:48.751Z,66.29
2022-10-28T20:23:17.092Z,65.96
2022-10-28T20:25:50.911Z,65.36
2022-10-28T20:28:18.338Z,65.53
2022-10-28T20:30:45.618Z,65.33
2022-10-28T20:33:12.776Z,66.18
2022-10-28T20:35:39.881Z,66.51
2022-10-28T20:40:34.553Z,65.79
2022-10-28T20:43:01.571Z,66.47
2022-10-28T20:45:28.519Z,66.72
2022-10-28T20:47:55.165Z,66.88
2022-10-28T20:50:22.273Z,66.03
2022-10-28T20:52:49.275Z,65.94
2022-10-28T20:55:16.171Z,66.46
2022-10-28T20:57:43.176Z,67.48
2022-10-28T21:00:10.279Z,67.11
2022-10-28T21:02:37.183Z,65.72
2022-10-28T21:05:04.522Z,65.40
2022-10-28T21:07:32.487Z,65.42
2022-10-28T21:09:59.520Z,65.49
2022-10-28T21:12:26.544Z,65.34
2022-10-28T21:14:53.342Z,65.55
2022-10-28T21:17:20.068Z,65.81
2022-10-28T21:19:47.067Z,65.65
2022-10-28T21:22:13.855Z,65.30
2022-10-28T21:24:40.521Z,65.37
2022-10-28T21:27:07.587Z,65.69
2022-10-28T21:29:34.335Z,66.24
2022-10-28T21:32:01.096Z,66.30
2022-10-28T21:34:28.256Z,65.71
2022-10-28T21:36:54.963Z,65.56
2022-10-28T21:39:21.677Z,65.69
2022-10-28T21:41:48.633Z,65.43
2022-10-28T21:44:15.290Z,65.58
2022-10-28T21:46:42.060Z,65.42
2022-10-28T21:49:09.347Z,64.92
2022-10-28T21:51:36.018Z,64.63
2022-10-28T21:54:02.714Z,64.49
2022-10-28T21:56:29.755Z,65.07
2022-10-28T21:58:56.432Z,64.85
2022-10-28T22:01:23.889Z,65.48
2022-10-28T22:03:51.479Z,65.92
2022-10-28T22:06:18.128Z,65.65
2022-10-28T22:08:44.938Z,65.23
2022-10-28T22:11:12.749Z,65.59
2022-10-28T22:13:39.413Z,65.10
2022-10-28T22:16:07.245Z,64.83
2022-10-28T22:18:35.604Z,64.79
2022-10-28T22:21:06.121Z,64.62
2022-10-28T22:23:33.027Z,64.20
2022-10-28T22:26:03.948Z,64.49
2022-10-28T22:28:30.843Z,66.24
2022-10-28T22:31:08.590Z,64.79
2022-10-28T22:33:35.692Z,64.84
2022-10-28T22:36:03.979Z,65.54
2022-10-28T22:38:30.771Z,65.28
2022-10-28T22:41:24.111Z,68.35
2022-10-28T22:43:51.632Z,67.97
2022-10-28T22:46:18.781Z,65.91
2022-10-28T22:48:45.643Z,65.72
2022-10-28T22:51:12.386Z,64.90
2022-10-28T22:53:39.530Z,65.48
2022-10-28T22:56:06.760Z,65.53
2022-10-28T22:58:33.563Z,64.76
2022-10-28T23:01:07.487Z,64.91
2022-10-28T23:03:34.799Z,65.43
2022-10-28T23:06:01.694Z,65.71
2022-10-28T23:08:28.494Z,65.12
2022-10-28T23:10:55.163Z,64.90
2022-10-28T23:13:22.087Z,65.84
2022-10-28T23:15:48.782Z,65.56
2022-10-28T23:18:15.442Z,65.67
2022-10-28T23:20:42.456Z,65.20
2022-10-28T23:23:10.165Z,65.74
2022-10-28T23:25:36.830Z,65.48
2022-10-28T23:28:06.852Z,65.39
2022-10-28T23:30:33.785Z,64.90
2022-10-28T23:33:00.556Z,65.72
2022-10-28T23:35:27.518Z,65.26
2022-10-28T23:37:54.422Z,65.42
2022-10-28T23:40:21.350Z,65.50
2022-10-28T23:42:48.278Z,64.95
2022-10-28T23:45:15.316Z,64.62
2022-10-28T23:47:41.997Z,64.57
2022-10-28T23:50:10.995Z,65.15
2022-10-28T23:52:37.785Z,65.49
2022-10-28T23:55:04.747Z,66.19
2022-10-28T23:57:31.628Z,64.94
2022-10-28T23:59:58.305Z,65.13
